Time;durP1;ratioP1;P1;durP2;ratioP2;P2;SDS_P1;SDS_P2;PMS_P1;PMS_P2;Temp;Humidity;BMP_temperature;BMP_pressure;BME280_temperature;BME280_humidity;BME280_pressure;Samples;Min_cycle;Max_cycle;Signal;HPM_P1;HPM_P2
2021/05/20 00:01:12;;;;;;;3.88;1.55;;;16.30;75.00;;;;;;4997213;28;20045;-69
2021/05/20 00:03:37;;;;;;;2.00;1.08;;;16.20;74.90;;;;;;4994964;28;20053;-68
2021/05/20 00:06:05;;;;;;;2.85;1.10;;;16.20;74.90;;;;;;5011427;28;20395;-68
2021/05/20 00:08:30;;;;;;;2.42;1.10;;;16.20;74.90;;;;;;5001382;28;20035;-68
2021/05/20 00:10:56;;;;;;;3.40;1.10;;;16.20;74.90;;;;;;5001497;28;20037;-68
2021/05/20 00:13:21;;;;;;;3.72;1.10;;;16.20;74.90;;;;;;5009848;28;20057;-66
2021/05/20 00:15:47;;;;;;;2.80;1.20;;;16.20;75.00;;;;;;4992065;28;20037;-67
2021/05/20 00:18:12;;;;;;;3.40;1.10;;;16.20;74.90;;;;;;4996055;28;20113;-67
2021/05/20 00:20:38;;;;;;;2.33;1.10;;;16.20;74.90;;;;;;5006488;28;20026;-68
2021/05/20 00:23:04;;;;;;;3.08;1.30;;;16.20;74.90;;;;;;5003057;28;20103;-67
2021/05/20 00:25:29;;;;;;;2.70;1.20;;;16.20;74.90;;;;;;5029247;28;20029;-67
2021/05/20 00:27:55;;;;;;;3.50;1.20;;;16.10;74.80;;;;;;5009480;28;20117;-68
2021/05/20 00:30:20;;;;;;;2.58;1.35;;;16.10;75.40;;;;;;5011466;28;20088;-68
2021/05/20 00:32:46;;;;;;;2.13;1.10;;;16.10;74.80;;;;;;5024909;28;20108;-68
2021/05/20 00:35:12;;;;;;;2.05;1.40;;;16.10;74.80;;;;;;5025066;28;20104;-68
2021/05/20 00:37:37;;;;;;;2.80;1.25;;;16.20;74.90;;;;;;5015033;28;20378;-67
2021/05/20 00:40:04;;;;;;;3.80;1.20;;;16.10;74.90;;;;;;5028404;28;20688;-68
2021/05/20 00:42:30;;;;;;;2.88;1.30;;;16.10;74.90;;;;;;5029079;28;20072;-67
2021/05/20 00:44:58;;;;;;;3.28;1.17;;;16.10;74.80;;;;;;5011100;28;20034;-67
2021/05/20 00:47:29;;;;;;;3.08;1.40;;;16.10;74.80;;;;;;5011284;28;20025;-68
2021/05/20 00:49:55;;;;;;;2.55;1.40;;;16.10;74.90;;;;;;5029827;28;20066;-67
2021/05/20 00:52:21;;;;;;;2.28;1.10;;;16.10;74.90;;;;;;5027736;28;20060;-67
2021/05/20 00:54:51;;;;;;;2.38;1.13;;;16.10;74.90;;;;;;4994127;28;20497;-67
2021/05/20 00:57:18;;;;;;;3.25;1.30;;;16.10;74.90;;;;;;5020940;28;20045;-68
2021/05/20 00:59:44;;;;;;;3.90;1.40;;;16.10;74.90;;;;;;5003435;28;20026;-67
2021/05/20 01:02:11;;;;;;;2.78;1.30;;;16.00;74.80;;;;;;5022354;28;20030;-67
2021/05/20 01:04:37;;;;;;;3.33;1.00;;;16.10;74.90;;;;;;5026546;28;20030;-67
2021/05/20 01:07:02;;;;;;;4.63;1.50;;;16.10;74.80;;;;;;5003736;28;20079;-68
2021/05/20 01:09:28;;;;;;;3.35;1.23;;;16.10;74.90;;;;;;5015212;28;20505;-68
2021/05/20 01:11:53;;;;;;;2.47;1.30;;;16.00;74.80;;;;;;5013209;28;20108;-68
2021/05/20 01:14:19;;;;;;;4.30;1.30;;;16.00;74.80;;;;;;5014248;28;20026;-67
2021/05/20 01:16:48;;;;;;;3.55;1.40;;;16.00;74.80;;;;;;5014633;28;20617;-68
2021/05/20 01:19:15;;;;;;;2.55;1.40;;;16.00;74.80;;;;;;5026624;28;20417;-68
2021/05/20 01:21:43;;;;;;;3.67;1.48;;;16.00;74.80;;;;;;5010989;28;20022;-68
2021/05/20 01:24:09;;;;;;;3.88;1.50;;;16.00;74.90;;;;;;5033733;28;20500;-67
2021/05/20 01:26:36;;;;;;;2.67;1.20;;;16.00;74.90;;;;;;5015885;28;20417;-68
2021/05/20 01:29:03;;;;;;;3.25;1.65;;;16.00;74.90;;;;;;5017108;28;20034;-68
2021/05/20 01:31:29;;;;;;;3.20;1.38;;;16.00;75.00;;;;;;5031789;28;20064;-68
2021/05/20 01:33:55;;;;;;;3.70;1.42;;;16.00;75.00;;;;;;4996108;28;20042;-67
2021/05/20 01:36:26;;;;;;;3.45;1.30;;;16.00;74.90;;;;;;5032967;28;20576;-67
2021/05/20 01:38:52;;;;;;;3.47;1.60;;;16.00;75.00;;;;;;5015540;28;20036;-68
2021/05/20 01:41:17;;;;;;;6.43;1.50;;;16.00;75.10;;;;;;5027346;28;20022;-68
2021/05/20 01:43:43;;;;;;;2.20;1.10;;;15.90;75.20;;;;;;5022845;28;20503;-67
2021/05/20 01:46:09;;;;;;;2.90;1.35;;;16.00;75.30;;;;;;5017941;28;20040;-68
2021/05/20 01:48:36;;;;;;;4.00;1.40;;;16.00;75.30;;;;;;5007013;28;20030;-68
2021/05/20 01:51:07;;;;;;;3.90;1.40;;;15.90;75.30;;;;;;5029518;28;20111;-68
2021/05/20 01:53:34;;;;;;;2.90;1.33;;;15.90;75.30;;;;;;5016688;28;20030;-67
2021/05/20 01:56:00;;;;;;;3.88;1.67;;;15.90;75.30;;;;;;4999200;28;20112;-68
2021/05/20 01:58:26;;;;;;;4.55;1.40;;;15.90;75.30;;;;;;4996058;28;20030;-67
2021/05/20 02:00:52;;;;;;;2.42;1.30;;;15.90;75.30;;;;;;5014039;28;20374;-67
2021/05/20 02:03:18;;;;;;;3.65;1.50;;;15.90;75.30;;;;;;5025238;28;20028;-67
2021/05/20 02:05:44;;;;;;;4.22;1.80;;;15.90;75.40;;;;;;5010203;28;20036;-67
2021/05/20 02:08:09;;;;;;;2.60;1.42;;;15.90;75.40;;;;;;5013502;28;20030;-68
2021/05/20 02:10:35;;;;;;;4.13;1.48;;;15.90;75.40;;;;;;5024814;28;20412;-68
2021/05/20 02:13:01;;;;;;;2.25;1.38;;;15.80;75.50;;;;;;5032862;28;20025;-68
2021/05/20 02:15:26;;;;;;;4.90;1.60;;;15.90;76.20;;;;;;5032150;28;20034;-67
2021/05/20 02:17:53;;;;;;;4.43;1.50;;;15.80;75.60;;;;;;5032776;28;20028;-68
2021/05/20 02:20:19;;;;;;;4.22;1.50;;;15.90;75.80;;;;;;5032915;28;20104;-68
2021/05/20 02:22:45;;;;;;;4.15;1.58;;;15.80;75.80;;;;;;5006951;28;20117;-67
2021/05/20 02:25:11;;;;;;;3.42;1.40;;;15.80;75.90;;;;;;4995086;28;20471;-67
2021/05/20 02:27:37;;;;;;;5.35;1.50;;;15.80;75.80;;;;;;5009733;28;20117;-68
2021/05/20 02:30:04;;;;;;;3.00;1.52;;;15.80;75.90;;;;;;4996777;28;20028;-67
2021/05/20 02:32:30;;;;;;;2.55;1.25;;;15.80;75.90;;;;;;4993432;28;20121;-68
2021/05/20 02:34:56;;;;;;;3.55;1.50;;;15.80;76.00;;;;;;4996211;28;20061;-68
2021/05/20 02:37:21;;;;;;;3.33;1.35;;;15.80;76.00;;;;;;5012659;28;20026;-68
2021/05/20 02:39:47;;;;;;;4.65;1.60;;;15.70;76.10;;;;;;4997301;28;20490;-68
2021/05/20 02:42:12;;;;;;;6.30;1.50;;;15.80;76.30;;;;;;5012051;28;20021;-67
2021/05/20 02:44:38;;;;;;;4.40;1.60;;;15.80;76.30;;;;;;4992950;28;20026;-68
2021/05/20 02:47:03;;;;;;;3.22;1.40;;;15.70;76.30;;;;;;4993256;28;20073;-68
2021/05/20 02:49:29;;;;;;;7.05;1.77;;;15.70;76.40;;;;;;5007742;28;20527;-68
2021/05/20 02:51:54;;;;;;;5.90;1.40;;;15.70;76.50;;;;;;5000717;28;20033;-68
2021/05/20 02:54:20;;;;;;;6.50;1.58;;;15.70;76.60;;;;;;5007027;28;20157;-67
2021/05/20 02:56:46;;;;;;;5.30;1.50;;;15.70;76.70;;;;;;4996212;28;20113;-69
2021/05/20 02:59:12;;;;;;;5.25;1.67;;;15.70;76.70;;;;;;5011400;28;20026;-67
2021/05/20 03:01:43;;;;;;;3.20;1.40;;;15.70;76.70;;;;;;5001847;28;20022;-67
2021/05/20 03:04:09;;;;;;;3.72;1.52;;;15.70;76.70;;;;;;5012013;28;20645;-68
2021/05/20 03:06:35;;;;;;;5.45;1.55;;;15.70;76.70;;;;;;5002113;28;20101;-68
2021/05/20 03:09:02;;;;;;;3.63;1.60;;;15.70;76.80;;;;;;5010788;28;20066;-68
2021/05/20 03:11:28;;;;;;;7.03;1.52;;;15.70;76.80;;;;;;4998220;28;20072;-68
2021/05/20 03:13:54;;;;;;;4.70;1.50;;;15.70;76.80;;;;;;5005930;28;20036;-68
2021/05/20 03:16:19;;;;;;;3.90;1.70;;;15.60;76.80;;;;;;5012043;28;20026;-67
2021/05/20 03:18:45;;;;;;;5.55;1.80;;;15.60;76.80;;;;;;5007669;28;20438;-66
2021/05/20 03:21:10;;;;;;;4.32;1.67;;;15.60;77.00;;;;;;5003498;28;20084;-67
2021/05/20 03:23:36;;;;;;;6.32;1.63;;;15.60;76.90;;;;;;5010023;28;20026;-67
2021/05/20 03:26:01;;;;;;;4.57;1.63;;;15.60;77.00;;;;;;5008785;28;20026;-68
2021/05/20 03:28:27;;;;;;;3.25;1.48;;;15.60;77.50;;;;;;5000693;28;20033;-68
2021/05/20 03:30:52;;;;;;;6.25;1.60;;;15.60;77.10;;;;;;5009028;28;20482;-67
2021/05/20 03:33:18;;;;;;;5.20;2.03;;;15.60;77.10;;;;;;5002110;28;20584;-68
2021/05/20 03:35:43;;;;;;;3.13;1.38;;;15.60;77.20;;;;;;5026661;28;20144;-67
2021/05/20 03:38:09;;;;;;;3.60;1.38;;;15.50;77.10;;;;;;5003247;28;20050;-67
2021/05/20 03:40:34;;;;;;;4.72;1.45;;;15.60;77.20;;;;;;5010337;28;20053;-67
2021/05/20 03:43:00;;;;;;;6.22;1.70;;;15.50;77.10;;;;;;5010411;28;20512;-67
2021/05/20 03:45:26;;;;;;;3.70;1.50;;;15.50;77.10;;;;;;4997793;28;20037;-67
2021/05/20 03:47:51;;;;;;;3.03;1.50;;;15.60;77.20;;;;;;4994702;28;20027;-68
2021/05/20 03:50:17;;;;;;;4.53;1.50;;;15.50;77.20;;;;;;5008160;28;20442;-68
2021/05/20 03:52:42;;;;;;;3.53;1.60;;;15.50;77.20;;;;;;5011472;28;20132;-68
2021/05/20 03:55:08;;;;;;;2.95;1.45;;;15.50;77.10;;;;;;5008356;28;20116;-68
2021/05/20 03:57:34;;;;;;;3.97;1.48;;;15.50;77.20;;;;;;5020459;28;20069;-68
2021/05/20 03:59:59;;;;;;;3.92;1.55;;;15.50;77.20;;;;;;5008910;28;20484;-68
2021/05/20 04:02:25;;;;;;;3.92;1.38;;;15.50;77.10;;;;;;4997868;28;20571;-67
2021/05/20 04:04:50;;;;;;;4.20;1.60;;;15.50;77.10;;;;;;5006147;28;20816;-68
2021/05/20 04:07:16;;;;;;;3.63;1.65;;;15.50;77.10;;;;;;5011203;28;20057;-67
2021/05/20 04:09:42;;;;;;;3.22;1.42;;;15.50;77.10;;;;;;4997875;28;20030;-68
2021/05/20 04:12:08;;;;;;;3.13;1.50;;;15.50;77.10;;;;;;4997672;28;20026;-68
2021/05/20 04:14:33;;;;;;;3.03;1.50;;;15.50;77.00;;;;;;5004653;28;20030;-67
2021/05/20 04:16:59;;;;;;;3.42;1.40;;;15.60;77.10;;;;;;5009603;28;20081;-67
2021/05/20 04:19:24;;;;;;;3.80;1.73;;;15.60;77.00;;;;;;5011262;28;20436;-67
2021/05/20 04:21:50;;;;;;;4.53;1.60;;;15.60;76.90;;;;;;5001497;28;20058;-68
2021/05/20 04:24:15;;;;;;;3.65;1.70;;;15.60;76.80;;;;;;5028280;28;20049;-67
2021/05/20 04:26:41;;;;;;;3.90;1.80;;;15.60;76.80;;;;;;5022528;28;20033;-68
2021/05/20 04:29:09;;;;;;;5.10;1.95;;;15.60;76.80;;;;;;5025261;28;20057;-67
2021/05/20 04:31:34;;;;;;;3.25;1.58;;;15.60;76.70;;;;;;5033864;28;20507;-67
2021/05/20 04:34:00;;;;;;;2.97;1.80;;;15.60;76.70;;;;;;5016928;28;20038;-68
2021/05/20 04:36:26;;;;;;;3.38;1.73;;;15.60;76.70;;;;;;4998617;28;20026;-67
2021/05/20 04:38:52;;;;;;;4.70;1.85;;;15.60;76.60;;;;;;5027391;28;20121;-68
2021/05/20 04:41:18;;;;;;;2.80;1.50;;;15.60;76.60;;;;;;5022260;28;20686;-68
2021/05/20 04:43:43;;;;;;;4.43;1.67;;;15.60;76.60;;;;;;5016658;28;20568;-67
2021/05/20 04:46:09;;;;;;;3.78;1.63;;;15.60;76.60;;;;;;5003842;28;20437;-67
2021/05/20 04:48:34;;;;;;;3.78;1.40;;;15.60;76.60;;;;;;5008839;28;20033;-67
2021/05/20 04:51:01;;;;;;;3.10;1.60;;;15.60;76.60;;;;;;5031264;28;20573;-67
2021/05/20 04:53:27;;;;;;;3.80;1.58;;;15.70;76.60;;;;;;5016980;28;20396;-67
2021/05/20 04:55:53;;;;;;;3.20;1.70;;;15.60;76.70;;;;;;4999720;28;20026;-68
2021/05/20 04:58:18;;;;;;;3.53;1.70;;;15.70;76.60;;;;;;5026754;28;20044;-67
2021/05/20 05:00:44;;;;;;;4.22;1.80;;;15.70;76.70;;;;;;5019290;28;20057;-67
2021/05/20 05:03:09;;;;;;;4.85;1.50;;;15.70;76.50;;;;;;4993806;28;20512;-67
2021/05/20 05:05:35;;;;;;;3.75;1.85;;;15.70;76.50;;;;;;5008229;28;20114;-67
2021/05/20 05:08:00;;;;;;;3.50;1.65;;;15.70;76.50;;;;;;5013174;28;20033;-67
2021/05/20 05:10:26;;;;;;;4.45;2.05;;;15.80;76.70;;;;;;5018409;28;20789;-67
2021/05/20 05:12:52;;;;;;;4.28;1.95;;;15.80;76.70;;;;;;5006996;28;20089;-67
2021/05/20 05:15:17;;;;;;;3.45;1.67;;;15.80;76.60;;;;;;5026254;28;20083;-67
2021/05/20 05:17:43;;;;;;;5.93;1.85;;;15.90;76.50;;;;;;4997473;28;20033;-67
2021/05/20 05:20:09;;;;;;;6.00;2.75;;;15.90;76.70;;;;;;5012209;28;20040;-67
2021/05/20 05:22:35;;;;;;;9.70;3.83;;;15.90;76.70;;;;;;5025219;28;20112;-67
2021/05/20 05:25:01;;;;;;;8.63;3.60;;;15.90;75.80;;;;;;5025195;28;20460;-67
2021/05/20 05:27:26;;;;;;;7.35;3.30;;;15.90;75.70;;;;;;5021499;28;20087;-67
2021/05/20 05:29:52;;;;;;;7.40;3.05;;;15.90;75.30;;;;;;5022036;28;20037;-67
2021/05/20 05:32:18;;;;;;;8.80;3.03;;;16.00;75.60;;;;;;5025360;28;20026;-67
2021/05/20 05:34:43;;;;;;;8.68;3.10;;;16.00;75.60;;;;;;4996174;28;20035;-67
2021/05/20 05:37:09;;;;;;;14.10;3.45;;;16.10;75.00;;;;;;5002646;28;20714;-68
2021/05/20 05:39:34;;;;;;;16.38;4.35;;;16.10;75.00;;;;;;5010886;28;20493;-67
2021/05/20 05:42:00;;;;;;;16.33;4.93;;;16.20;74.30;;;;;;5018610;28;20028;-68
2021/05/20 05:44:25;;;;;;;13.20;5.25;;;16.20;73.40;;;;;;5016574;28;20168;-67
2021/05/20 05:46:51;;;;;;;18.80;5.78;;;16.20;73.90;;;;;;5018048;28;20123;-67
2021/05/20 05:49:25;;;;;;;11.80;5.40;;;16.30;73.10;;;;;;5007513;28;20043;-67
2021/05/20 05:51:54;;;;;;;11.02;5.57;;;16.30;72.50;;;;;;5008342;28;20061;-67
2021/05/20 05:54:20;;;;;;;10.32;5.90;;;16.40;72.20;;;;;;5025567;28;20026;-67
2021/05/20 05:56:45;;;;;;;10.40;6.15;;;16.40;71.90;;;;;;5019529;28;20064;-67
2021/05/20 05:59:11;;;;;;;9.40;6.03;;;16.50;71.00;;;;;;5016950;28;20117;-66
2021/05/20 06:01:39;;;;;;;10.95;5.90;;;16.50;70.70;;;;;;5018168;28;20076;-66
2021/05/20 06:04:06;;;;;;;9.73;6.60;;;16.60;70.30;;;;;;5016756;28;20021;-66
2021/05/20 06:06:31;;;;;;;10.05;6.72;;;16.60;69.80;;;;;;4999497;28;20033;-67
2021/05/20 06:08:57;;;;;;;10.90;6.72;;;16.70;70.00;;;;;;4999456;28;20025;-67
2021/05/20 06:11:23;;;;;;;9.98;7.38;;;16.80;69.30;;;;;;5023357;28;20053;-67
2021/05/20 06:13:48;;;;;;;11.57;7.57;;;16.90;69.20;;;;;;5020000;28;20025;-67
2021/05/20 06:16:14;;;;;;;15.38;7.30;;;16.90;68.80;;;;;;5025076;28;20064;-66
2021/05/20 06:18:39;;;;;;;10.85;7.30;;;17.00;68.80;;;;;;5020687;28;20126;-67
2021/05/20 06:21:05;;;;;;;9.93;7.05;;;17.10;68.30;;;;;;5016871;28;20396;-67
2021/05/20 06:23:31;;;;;;;10.15;6.38;;;17.20;68.40;;;;;;5011768;28;20041;-67
2021/05/20 06:25:56;;;;;;;8.68;5.70;;;17.30;67.90;;;;;;5006872;28;20025;-67
2021/05/20 06:28:23;;;;;;;10.55;6.10;;;17.40;67.60;;;;;;5004082;28;20037;-67
2021/05/20 06:30:48;;;;;;;11.65;6.00;;;17.50;67.60;;;;;;5026306;28;20117;-67
2021/05/20 06:33:15;;;;;;;8.85;5.47;;;17.60;68.40;;;;;;5026640;28;20112;-67
2021/05/20 06:35:41;;;;;;;11.98;5.72;;;17.70;67.70;;;;;;5025254;28;20033;-67
2021/05/20 06:38:07;;;;;;;9.05;5.15;;;17.80;67.40;;;;;;5008283;28;20034;-67
2021/05/20 06:40:32;;;;;;;8.50;4.82;;;17.90;67.10;;;;;;5008200;28;20032;-67
2021/05/20 06:42:58;;;;;;;8.05;4.95;;;17.90;66.60;;;;;;5008303;28;20028;-66
2021/05/20 06:45:23;;;;;;;12.07;4.65;;;18.00;66.50;;;;;;4999219;28;20092;-67
2021/05/20 06:47:58;;;;;;;9.98;4.65;;;18.10;66.00;;;;;;4997265;28;20489;-67
2021/05/20 06:50:24;;;;;;;10.27;4.40;;;18.20;66.50;;;;;;5015582;28;20041;-67
2021/05/20 06:52:52;;;;;;;9.75;4.63;;;18.20;65.60;;;;;;5016981;28;20030;-67
2021/05/20 06:55:18;;;;;;;7.93;4.50;;;18.40;65.60;;;;;;5020870;28;20069;-67
2021/05/20 07:00:32;;;;;;;8.30;3.90;;;18.50;64.80;;;;;;5013867;28;20072;-67
2021/05/20 07:02:58;;;;;;;8.25;3.80;;;18.60;64.50;;;;;;4988828;28;20088;-67
2021/05/20 07:05:23;;;;;;;6.32;3.60;;;18.60;64.40;;;;;;5006330;28;20136;-67
2021/05/20 07:07:49;;;;;;;7.78;3.58;;;18.70;63.90;;;;;;5006329;28;20057;-67
2021/05/20 07:10:16;;;;;;;8.30;3.65;;;18.80;63.70;;;;;;5006044;28;20042;-67
2021/05/20 07:12:41;;;;;;;8.10;3.80;;;18.90;63.60;;;;;;4999844;28;20025;-67
2021/05/20 07:15:08;;;;;;;7.35;3.47;;;18.90;63.20;;;;;;5025780;28;20935;-67
2021/05/20 07:17:33;;;;;;;12.20;4.07;;;19.00;62.90;;;;;;5023366;28;20041;-66
2021/05/20 07:19:59;;;;;;;6.53;3.70;;;19.00;62.80;;;;;;5022338;28;20029;-68
2021/05/20 07:22:24;;;;;;;6.47;3.33;;;19.20;62.70;;;;;;5024961;28;20059;-67
2021/05/20 07:24:50;;;;;;;7.10;3.00;;;19.20;62.30;;;;;;5006950;28;20033;-69
2021/05/20 07:27:16;;;;;;;8.90;3.30;;;19.30;61.90;;;;;;5007739;28;20029;-68
2021/05/20 07:29:41;;;;;;;6.88;3.42;;;19.30;61.90;;;;;;5025863;28;20408;-68
2021/05/20 07:32:09;;;;;;;6.63;3.30;;;19.30;62.20;;;;;;5007801;28;20091;-67
2021/05/20 07:34:36;;;;;;;6.03;2.72;;;19.30;62.60;;;;;;5025460;28;20557;-67
2021/05/20 07:37:01;;;;;;;6.78;3.40;;;19.20;61.60;;;;;;5025559;28;20033;-68
2021/05/20 07:39:27;;;;;;;6.82;3.25;;;19.10;62.00;;;;;;5025811;28;20124;-68
2021/05/20 07:41:52;;;;;;;7.28;3.40;;;19.10;62.60;;;;;;5024725;28;20036;-68
2021/05/20 07:44:18;;;;;;;10.40;4.35;;;19.20;62.20;;;;;;5006757;28;20492;-72
2021/05/20 07:46:44;;;;;;;10.35;5.97;;;19.40;62.40;;;;;;5011541;28;20552;-67
2021/05/20 07:49:09;;;;;;;8.43;3.33;;;19.50;61.40;;;;;;5018650;28;20057;-67
2021/05/20 07:51:35;;;;;;;8.60;3.30;;;19.40;61.40;;;;;;5031488;28;20029;-68
2021/05/20 07:54:03;;;;;;;7.03;3.22;;;19.20;61.70;;;;;;5015836;28;20496;-68
2021/05/20 07:56:28;;;;;;;8.52;3.85;;;19.00;62.10;;;;;;5031481;28;20108;-68
2021/05/20 07:58:54;;;;;;;7.80;3.25;;;18.90;62.40;;;;;;5010564;28;20151;-67
2021/05/20 08:01:21;;;;;;;6.75;3.70;;;18.80;62.50;;;;;;5022080;28;20033;-68
2021/05/20 08:03:50;;;;;;;7.78;3.80;;;18.70;62.60;;;;;;5030896;28;20021;-68
2021/05/20 08:06:20;;;;;;;8.88;3.28;;;18.60;63.40;;;;;;5016607;28;20028;-68
2021/05/20 08:11:15;;;;;;;6.57;3.60;;;18.40;64.10;;;;;;5018257;28;20022;-67
2021/05/20 08:13:41;;;;;;;9.27;3.90;;;18.40;64.00;;;;;;5017905;28;20092;-68
2021/05/20 08:16:06;;;;;;;8.55;3.60;;;18.40;64.20;;;;;;5019552;28;20030;-68
2021/05/20 08:18:32;;;;;;;9.20;3.50;;;18.30;64.60;;;;;;5037899;28;20527;-68
2021/05/20 08:20:59;;;;;;;6.00;2.95;;;18.30;64.50;;;;;;5037882;28;20021;-67
2021/05/20 08:23:25;;;;;;;7.93;3.40;;;18.30;64.90;;;;;;5037592;28;20033;-67
2021/05/20 08:25:50;;;;;;;7.35;3.90;;;18.30;64.40;;;;;;5037308;28;20029;-68
2021/05/20 08:28:16;;;;;;;7.32;3.25;;;18.30;64.70;;;;;;5036221;28;20132;-68
2021/05/20 08:30:43;;;;;;;5.88;2.92;;;18.30;64.60;;;;;;5029790;28;20061;-66
2021/05/20 08:33:08;;;;;;;7.97;3.38;;;18.60;64.60;;;;;;5037644;28;20029;-68
2021/05/20 08:35:34;;;;;;;8.75;3.47;;;18.60;63.70;;;;;;5037477;28;20034;-68
2021/05/20 08:38:00;;;;;;;7.68;4.00;;;18.80;63.60;;;;;;5037712;28;20039;-67
2021/05/20 08:40:26;;;;;;;8.18;3.78;;;19.20;62.60;;;;;;5038094;28;20060;-67
2021/05/20 08:42:52;;;;;;;8.48;4.32;;;19.30;61.70;;;;;;5032467;28;20041;-67
2021/05/20 08:45:21;;;;;;;7.03;3.78;;;19.30;60.70;;;;;;5028178;28;20068;-67
2021/05/20 08:47:49;;;;;;;8.25;4.45;;;19.40;61.50;;;;;;5019116;28;20046;-66
2021/05/20 08:50:16;;;;;;;8.45;4.38;;;19.40;60.10;;;;;;5037642;28;20029;-68
2021/05/20 08:52:43;;;;;;;8.15;4.25;;;19.30;60.50;;;;;;5036085;28;20021;-68
2021/05/20 08:55:14;;;;;;;7.55;3.95;;;19.40;60.90;;;;;;5019371;28;20047;-67
2021/05/20 08:57:40;;;;;;;8.73;4.90;;;19.20;60.70;;;;;;5019688;28;20029;-68
2021/05/20 09:00:09;;;;;;;7.22;4.13;;;19.40;61.00;;;;;;5037430;28;20466;-68
2021/05/20 09:02:35;;;;;;;7.63;4.53;;;19.40;60.00;;;;;;5019877;28;20396;-68
2021/05/20 09:05:21;;;;;;;8.18;4.90;;;19.40;60.50;;;;;;5037260;28;20104;-68
2021/05/20 09:07:51;;;;;;;6.93;4.40;;;19.40;60.50;;;;;;5036346;28;20584;-67
2021/05/20 09:10:25;;;;;;;7.57;4.47;;;19.60;60.00;;;;;;5037166;28;20025;-68
2021/05/20 09:13:12;;;;;;;7.90;5.30;;;19.60;60.30;;;;;;5036133;28;20032;-68
2021/05/20 09:15:43;;;;;;;10.23;4.93;;;19.70;59.70;;;;;;5034592;28;20108;-67
2021/05/20 09:18:27;;;;;;;7.80;3.97;;;19.70;60.10;;;;;;5006757;28;20049;-68
2021/05/20 09:20:56;;;;;;;8.60;4.90;;;20.00;60.00;;;;;;5030299;28;20507;-68
2021/05/20 09:23:31;;;;;;;6.88;4.18;;;20.20;58.80;;;;;;5016992;28;20038;-67
2021/05/20 09:26:05;;;;;;;7.32;4.20;;;20.30;58.10;;;;;;5014580;28;20045;-68
2021/05/20 09:28:34;;;;;;;7.18;4.43;;;20.10;58.10;;;;;;5017777;28;20734;-68
2021/05/20 09:31:00;;;;;;;9.50;5.00;;;20.30;58.00;;;;;;5019116;28;20029;-68
2021/05/20 09:33:27;;;;;;;10.43;5.22;;;20.40;57.80;;;;;;5014610;28;20029;-67
2021/05/20 09:35:52;;;;;;;8.90;4.97;;;20.30;57.50;;;;;;5001596;28;20113;-67
2021/05/20 09:38:20;;;;;;;7.28;3.95;;;20.20;57.90;;;;;;5032894;28;20100;-67
2021/05/20 09:40:58;;;;;;;6.70;4.07;;;20.40;57.90;;;;;;5032691;28;20017;-68
2021/05/20 09:43:35;;;;;;;6.97;4.03;;;20.50;57.30;;;;;;5014657;28;20022;-68
2021/05/20 09:46:11;;;;;;;7.53;4.05;;;20.60;57.40;;;;;;5033318;28;20018;-68
2021/05/20 09:48:40;;;;;;;7.65;3.90;;;20.80;57.10;;;;;;5027878;28;20022;-68
2021/05/20 09:51:07;;;;;;;8.18;3.83;;;20.70;56.20;;;;;;5013991;28;20026;-69
2021/05/20 09:53:44;;;;;;;6.60;3.50;;;20.60;56.80;;;;;;5013618;28;20113;-68
2021/05/20 09:56:10;;;;;;;5.95;3.30;;;20.30;57.20;;;;;;5013935;28;20030;-68
2021/05/20 09:58:36;;;;;;;6.60;3.42;;;20.50;58.00;;;;;;5013733;28;20036;-68
2021/05/20 10:01:05;;;;;;;6.85;3.53;;;20.50;57.60;;;;;;5013808;28;20022;-69
2021/05/20 10:03:35;;;;;;;6.00;3.28;;;20.30;57.10;;;;;;5013382;28;20033;-68
2021/05/20 10:06:00;;;;;;;7.20;3.15;;;20.30;58.10;;;;;;5013682;28;20413;-68
2021/05/20 10:08:30;;;;;;;6.93;3.30;;;20.60;57.20;;;;;;4996253;28;20029;-68
2021/05/20 10:10:57;;;;;;;6.15;3.00;;;20.50;56.70;;;;;;5013882;28;20485;-68
2021/05/20 10:13:28;;;;;;;7.88;3.58;;;20.40;57.40;;;;;;4998301;28;20110;-68
2021/05/20 10:15:56;;;;;;;7.03;3.37;;;20.40;57.30;;;;;;5029525;28;20029;-68
2021/05/20 10:18:26;;;;;;;5.88;2.97;;;20.60;57.20;;;;;;5026970;28;20362;-68
2021/05/20 10:20:55;;;;;;;5.90;2.95;;;20.90;56.90;;;;;;5019737;28;20148;-68
2021/05/20 10:23:22;;;;;;;6.05;3.22;;;21.00;56.20;;;;;;5032887;28;20069;-67
2021/05/20 10:25:51;;;;;;;8.43;2.90;;;21.10;55.80;;;;;;5022616;28;20022;-68
2021/05/20 10:28:19;;;;;;;5.68;2.72;;;21.20;55.50;;;;;;5006001;28;20029;-68
2021/05/20 10:30:46;;;;;;;5.95;2.72;;;21.30;55.50;;;;;;5012893;28;20029;-68
2021/05/20 10:33:12;;;;;;;7.15;2.80;;;21.30;55.10;;;;;;5004549;28;20112;-67
2021/05/20 10:35:52;;;;;;;7.03;3.13;;;21.40;54.80;;;;;;5013115;28;20030;-67
2021/05/20 10:38:38;;;;;;;6.17;2.57;;;21.40;54.30;;;;;;5013083;28;20076;-68
2021/05/20 10:41:18;;;;;;;4.82;2.33;;;21.00;54.70;;;;;;5032616;28;20013;-68
2021/05/20 10:44:03;;;;;;;5.57;2.47;;;20.70;55.40;;;;;;5032408;28;20079;-67
2021/05/20 10:46:29;;;;;;;5.57;2.47;;;20.50;56.20;;;;;;5014860;28;20033;-67
2021/05/20 10:48:57;;;;;;;5.25;2.33;;;20.40;57.00;;;;;;5012908;28;20100;-68
2021/05/20 10:51:25;;;;;;;4.28;2.10;;;20.60;57.10;;;;;;5012723;28;20109;-68
2021/05/20 10:54:15;;;;;;;5.28;2.20;;;20.70;56.40;;;;;;5016339;28;20390;-68
2021/05/20 10:56:48;;;;;;;4.25;2.10;;;20.70;55.90;;;;;;5024541;28;20413;-68
2021/05/20 10:59:33;;;;;;;5.53;2.55;;;20.60;56.30;;;;;;5014824;28;20063;-67
2021/05/20 11:01:59;;;;;;;4.90;2.33;;;20.30;56.80;;;;;;5030506;28;20018;-67
2021/05/20 11:04:35;;;;;;;5.22;2.45;;;20.10;57.20;;;;;;5030520;28;20032;-68
2021/05/20 11:07:01;;;;;;;5.53;2.17;;;20.10;58.00;;;;;;5030870;28;20021;-68
2021/05/20 11:09:46;;;;;;;6.00;2.63;;;20.40;57.30;;;;;;5031017;28;20029;-68
2021/05/20 11:12:12;;;;;;;4.03;2.00;;;20.40;56.60;;;;;;5021801;28;20030;-68
2021/05/20 11:14:39;;;;;;;4.88;2.10;;;20.20;56.80;;;;;;4994465;28;20126;-68
2021/05/20 11:17:30;;;;;;;4.93;2.25;;;20.00;57.30;;;;;;5018658;28;20456;-68
2021/05/20 11:20:24;;;;;;;5.10;2.10;;;19.90;57.90;;;;;;5010340;28;20025;-69
2021/05/20 11:23:18;;;;;;;4.90;1.92;;;20.30;57.80;;;;;;5028579;28;20025;-68
2021/05/20 11:25:46;;;;;;;5.38;2.20;;;20.50;56.40;;;;;;5016895;28;20045;-68
2021/05/20 11:28:12;;;;;;;5.05;2.20;;;20.60;56.60;;;;;;5018978;28;20393;-69
2021/05/20 11:30:37;;;;;;;4.78;2.30;;;20.80;56.40;;;;;;5005062;28;20026;-68
2021/05/20 11:33:04;;;;;;;4.88;2.05;;;20.90;56.00;;;;;;5012711;28;20018;-67
2021/05/20 11:35:55;;;;;;;6.28;2.45;;;20.60;55.80;;;;;;5012725;28;20485;-68
2021/05/20 11:38:27;;;;;;;5.50;2.03;;;20.50;56.50;;;;;;5030511;28;20512;-68
2021/05/20 11:40:53;;;;;;;4.32;1.90;;;20.60;56.30;;;;;;5029242;28;20381;-68
2021/05/20 11:43:27;;;;;;;3.65;1.88;;;20.70;56.10;;;;;;5012625;28;20037;-68
2021/05/20 11:45:52;;;;;;;5.28;1.80;;;20.50;56.00;;;;;;5012789;28;20032;-68
2021/05/20 11:48:18;;;;;;;5.15;1.80;;;20.40;56.70;;;;;;5030661;28;20389;-68
2021/05/20 11:50:50;;;;;;;7.00;2.00;;;20.30;56.70;;;;;;5009153;28;20560;-67
2021/05/20 11:53:16;;;;;;;5.78;2.00;;;20.30;56.90;;;;;;5027285;28;20079;-69
2021/05/20 11:55:43;;;;;;;4.80;2.00;;;20.30;56.90;;;;;;5008978;28;20021;-66
2021/05/20 11:58:08;;;;;;;4.95;2.05;;;20.20;57.20;;;;;;5011839;28;20029;-68
2021/05/20 12:00:34;;;;;;;4.88;1.90;;;20.20;57.20;;;;;;5011843;28;20025;-67
2021/05/20 12:02:59;;;;;;;5.22;1.92;;;20.20;57.30;;;;;;4994139;28;20033;-68
2021/05/20 12:05:26;;;;;;;4.50;1.90;;;20.20;57.20;;;;;;5010280;28;20516;-68
2021/05/20 12:07:51;;;;;;;4.10;1.80;;;20.20;57.30;;;;;;5014804;28;20025;-68
2021/05/20 12:10:20;;;;;;;5.45;2.22;;;20.10;57.20;;;;;;5011691;28;20029;-68
2021/05/20 12:12:58;;;;;;;7.68;3.75;;;20.10;57.30;;;;;;4994162;28;20037;-68
2021/05/20 12:15:25;;;;;;;9.43;5.03;;;20.10;55.60;;;;;;5011466;28;20083;-67
2021/05/20 12:17:54;;;;;;;8.40;4.85;;;19.90;55.30;;;;;;5011710;28;20048;-67
2021/05/20 12:20:20;;;;;;;11.77;6.32;;;19.80;55.70;;;;;;5011710;28;20014;-68
2021/05/20 12:22:46;;;;;;;12.98;6.63;;;19.80;54.50;;;;;;4990601;28;20129;-68
2021/05/20 12:25:23;;;;;;;13.45;6.28;;;19.60;54.00;;;;;;4991752;28;20022;-68
2021/05/20 12:27:54;;;;;;;10.38;5.72;;;19.60;55.10;;;;;;4992134;28;20084;-68
2021/05/20 12:30:25;;;;;;;13.13;7.60;;;19.70;55.10;;;;;;4992090;28;20106;-68
2021/05/20 12:33:06;;;;;;;21.63;7.53;;;19.80;53.90;;;;;;4992047;28;20030;-67
2021/05/20 12:35:38;;;;;;;12.45;7.00;;;19.60;54.50;;;;;;4990518;28;20030;-68
2021/05/20 12:38:17;;;;;;;12.88;8.20;;;19.70;54.40;;;;;;4991885;28;20081;-68
2021/05/20 12:40:51;;;;;;;13.82;7.78;;;19.70;54.10;;;;;;4990377;28;20029;-68
2021/05/20 12:43:29;;;;;;;12.30;7.88;;;19.60;53.90;;;;;;4999031;28;20474;-68
2021/05/20 12:46:00;;;;;;;11.55;7.15;;;19.60;54.20;;;;;;5010244;28;20057;-68
2021/05/20 12:49:03;;;;;;;20.15;8.43;;;19.50;54.50;;;;;;5008129;28;20052;-67
2021/05/20 12:51:29;;;;;;;30.27;8.93;;;19.50;54.40;;;;;;4950995;28;20050;-68
2021/05/20 12:54:13;;;;;;;19.15;7.90;;;19.60;53.70;;;;;;4997530;28;20037;-68